Hattiesburg, MS

8:03 PM CDT on August 20, 2014 (GMT -0500)
Chain Municipal | Change Station
CLOSE
Current Station
Airport
Location: Hattiesburg,
Elevation: 151 ft
Nearby Weather Stations

Elev 151 ft 31.27 °N, 89.26 °W | Updated 10 minutes ago

Clear
Clear
87 °F
Feels Like 95 °F
N
7
Wind Variable Wind from SSW

Today
High -- | Low -- °F
--% Chance of Precip.
Yesterday
High -- | Low -- °F
Precip. -- in
6:25 AM 7:34 PM
Waning Crescent, 18% visible
Pressure 30.04 in
Visibility 10.0 miles
Clouds Clear
Heat Index 95 °F
Dew Point 74 °F
Humidity 65%
Rainfall 0.00 in
Snow Depth Not available.
UV 0 out of 12
Pollen 6.50 out of 12
Air Quality Not available.
Flu Activity Not available.
METAR KHBG 210053Z AUTO 20006KT 10SM CLR 31/23 A3005 RMK AO2 SLP172 T03060233

More Conditions Fewer Conditions

Pressure 30.04 in
Visibility 10.0 miles
Clouds Clear
Heat Index 95 °F
Dew Point 74 °F
Humidity 65%
Rainfall 0.00 in
Snow Depth Not available.
UV 0 out of 12
Pollen 6.50 out of 12
Air Quality Not available.
Flu Activity Not available.
METAR KHBG 210053Z AUTO 20006KT 10SM CLR 31/23 A3005 RMK AO2 SLP172 T03060233

More Conditions Fewer Conditions

10-Day Weather Forecast

Almanac

Astronomy

Aug. 20, 2014 Rise Set
Actual Time 6:25 AM CDT 7:34 PM CDT
Civil Twilight 6:00 AM CDT 7:59 PM CDT
Nautical Twilight 5:30 AM CDT 8:29 PM CDT
Astronomical Twilight 4:59 AM CDT 9:00 PM CDT
Moon 2:12 AM CDT (8/20) 4:12 PM CDT (8/20)
Length of Visible Light 13h 59m
Length of Day
13h 08m
Tomorrow will be 1m 43s shorter.
Waning Crescent, 18% of the Moon is Illuminated
Today
Waning Crescent
Aug 25
New
Sep 2
First Quarter
Sep 8
Full
Sep 15
Last Quarter

Today's Extremes

State Highs State Lows

Community

WunderPhotos

Upload Photos

1,745,823 photos uploaded!

WunderBlogs® & News

Nearby

Snow Depth

Station Depth Elevation
No new snow has been reported.

Earthquake Activity

City Distance Mag. Time & Date
No recent earthquake activity has been reported nearby.
Minimum magnitude displayed is 2.5.

Coastal Water Temperatures

Place Temperature
No Stations Reporting

Nearby Weather Stations